createdAt,value
2023-04-18T00:01:40.778Z,5.67
2023-04-18T00:04:46.403Z,5.73
2023-04-18T00:07:49.418Z,6.10
2023-04-18T00:10:52.237Z,6.63
2023-04-18T00:13:57.506Z,6.37
2023-04-18T00:17:01.432Z,6.37
2023-04-18T00:20:07.138Z,6.83
2023-04-18T00:23:14.078Z,6.67
2023-04-18T00:26:16.915Z,6.90
2023-04-18T00:29:20.890Z,6.73
2023-04-18T00:32:23.633Z,7.00
2023-04-18T00:35:26.376Z,6.33
2023-04-18T00:38:29.033Z,6.20
2023-04-18T00:41:31.719Z,6.63
2023-04-18T00:44:35.668Z,7.30
2023-04-18T00:47:38.449Z,7.63
2023-04-18T00:50:41.903Z,6.67
2023-04-18T00:53:45.975Z,6.93
2023-04-18T00:56:49.235Z,7.37
2023-04-18T00:59:53.438Z,7.57
2023-04-18T01:02:56.429Z,7.63
2023-04-18T01:06:01.037Z,7.70
2023-04-18T01:09:05.549Z,6.70
2023-04-18T01:12:08.276Z,7.27
2023-04-18T01:15:12.791Z,6.97
2023-04-18T01:18:16.902Z,7.23
2023-04-18T01:21:20.104Z,7.60
2023-04-18T01:24:26.749Z,7.53
2023-04-18T01:27:29.428Z,7.53
2023-04-18T01:30:32.150Z,7.60
2023-04-18T01:33:34.839Z,7.43
2023-04-18T01:36:39.631Z,7.37
2023-04-18T01:39:43.646Z,7.33
2023-04-18T01:42:46.434Z,7.40
2023-04-18T01:45:49.081Z,7.50
2023-04-18T01:48:51.929Z,6.87
2023-04-18T01:51:54.654Z,7.33
2023-04-18T01:54:58.602Z,7.90
2023-04-18T01:58:01.847Z,7.67
2023-04-18T02:01:04.763Z,7.37
2023-04-18T02:04:07.602Z,7.03
2023-04-18T02:07:10.496Z,7.33
2023-04-18T02:10:14.485Z,8.07
2023-04-18T02:13:17.116Z,7.57
2023-04-18T02:16:19.812Z,6.60
2023-04-18T02:19:22.508Z,7.13
2023-04-18T02:22:25.226Z,7.03
2023-04-18T02:25:29.406Z,6.83
2023-04-18T02:28:32.066Z,6.43
2023-04-18T02:31:34.872Z,6.43
2023-04-18T02:34:37.951Z,6.57
2023-04-18T02:37:40.777Z,6.60
2023-04-18T02:40:44.773Z,6.83
2023-04-18T02:43:47.635Z,7.17
2023-04-18T02:46:50.485Z,6.53
2023-04-18T02:49:53.324Z,6.27
2023-04-18T02:52:56.845Z,6.37
2023-04-18T02:56:01.208Z,6.57
2023-04-18T02:59:03.824Z,5.77
2023-04-18T03:02:06.561Z,6.57
2023-04-18T03:05:09.450Z,6.60
2023-04-18T03:08:12.295Z,7.27
2023-04-18T03:11:16.410Z,6.60
2023-04-18T03:14:19.034Z,6.63
2023-04-18T03:17:21.721Z,6.43
2023-04-18T03:20:24.459Z,6.23
2023-04-18T03:23:27.127Z,6.53
2023-04-18T03:26:31.856Z,6.47
2023-04-18T03:29:34.537Z,7.53
2023-04-18T03:32:37.273Z,6.40
2023-04-18T03:35:39.986Z,6.70
2023-04-18T03:38:42.795Z,6.83
2023-04-18T03:41:46.777Z,7.23
2023-04-18T03:44:50.590Z,7.27
2023-04-18T03:47:53.256Z,6.77
2023-04-18T03:50:56.031Z,6.73
2023-04-18T03:53:58.884Z,6.87
2023-04-18T03:57:03.149Z,7.37
2023-04-18T04:00:08.182Z,7.23
2023-04-18T04:03:11.378Z,7.30
2023-04-18T04:06:14.299Z,6.67
2023-04-18T04:09:17.015Z,7.67
2023-04-18T04:12:21.027Z,7.73
2023-04-18T04:15:23.871Z,8.23
2023-04-18T04:18:31.015Z,8.10
2023-04-18T04:21:33.920Z,6.93
2023-04-18T04:24:38.486Z,7.20
2023-04-18T04:27:42.785Z,7.87
2023-04-18T04:30:45.594Z,7.77
2023-04-18T04:33:48.209Z,8.63
2023-04-18T04:36:51.069Z,7.03
2023-04-18T04:39:53.681Z,7.90
2023-04-18T04:42:58.570Z,7.33
2023-04-18T04:46:02.843Z,7.20
2023-04-18T04:49:05.520Z,6.90
2023-04-18T04:52:08.209Z,7.63
2023-04-18T04:55:11.417Z,7.17
2023-04-18T04:58:15.865Z,7.57
2023-04-18T05:01:18.646Z,8.13
2023-04-18T05:04:21.717Z,8.13
2023-04-18T05:07:24.888Z,7.33
2023-04-18T05:10:27.630Z,7.40
2023-04-18T05:13:31.694Z,7.47
2023-04-18T05:16:34.460Z,8.17
2023-04-18T05:19:37.282Z,7.57
2023-04-18T05:22:40.157Z,8.00
2023-04-18T05:25:43.090Z,7.10
2023-04-18T05:28:47.152Z,7.40
2023-04-18T05:31:49.820Z,7.63
2023-04-18T05:34:52.451Z,7.53
2023-04-18T05:37:55.188Z,8.77
2023-04-18T05:41:00.223Z,7.63
2023-04-18T05:44:05.600Z,8.07
2023-04-18T05:47:19.840Z,8.10
2023-04-18T05:50:23.094Z,7.70
2023-04-18T05:53:25.805Z,7.60
2023-04-18T05:56:28.517Z,7.93
2023-04-18T05:59:32.517Z,8.10
2023-04-18T06:02:35.281Z,7.03
2023-04-18T06:05:38.299Z,7.73
2023-04-18T06:08:41.271Z,7.80
2023-04-18T06:11:43.878Z,7.87
2023-04-18T06:14:47.856Z,7.07
2023-04-18T06:17:50.448Z,7.83
2023-04-18T06:20:53.055Z,7.53
2023-04-18T06:23:55.732Z,7.57
2023-04-18T06:26:58.481Z,7.87
2023-04-18T06:30:02.521Z,6.87
2023-04-18T06:33:05.311Z,7.53
2023-04-18T06:36:08.957Z,7.30
2023-04-18T06:39:11.692Z,7.07
2023-04-18T06:42:14.657Z,8.17
2023-04-18T06:45:18.709Z,7.83
2023-04-18T06:48:21.582Z,6.73
2023-04-18T06:51:24.196Z,6.93
2023-04-18T06:54:26.893Z,7.40
2023-04-18T06:57:29.916Z,7.10
2023-04-18T07:00:33.882Z,7.37
2023-04-18T07:03:36.627Z,7.50
2023-04-18T07:06:39.335Z,7.30
2023-04-18T07:09:41.919Z,7.60
2023-04-18T07:12:44.567Z,7.90
2023-04-18T07:15:48.689Z,7.40
2023-04-18T07:18:51.746Z,7.30
2023-04-18T07:21:55.889Z,7.37
2023-04-18T07:24:58.488Z,6.97
2023-04-18T07:28:01.042Z,7.60
2023-04-18T07:31:05.146Z,7.40
2023-04-18T07:34:08.946Z,7.17
2023-04-18T07:37:14.650Z,7.70
2023-04-18T07:40:17.614Z,6.27
2023-04-18T07:43:21.033Z,6.77
2023-04-18T07:46:25.196Z,7.77
2023-04-18T07:49:28.592Z,7.07
2023-04-18T07:52:31.252Z,7.40
2023-04-18T07:55:33.907Z,7.13
2023-04-18T07:58:36.762Z,7.03
2023-04-18T08:01:40.792Z,7.40
2023-04-18T08:04:43.630Z,7.57
2023-04-18T08:07:46.512Z,7.80
2023-04-18T08:10:49.105Z,7.07
2023-04-18T08:13:51.712Z,6.57
2023-04-18T08:16:55.654Z,7.03
2023-04-18T08:19:58.699Z,6.80
2023-04-18T08:23:08.447Z,7.33
2023-04-18T08:26:13.149Z,6.57
2023-04-18T08:29:15.956Z,7.07
2023-04-18T08:32:20.081Z,7.67
2023-04-18T08:35:22.769Z,7.07
2023-04-18T08:38:25.852Z,6.95
2023-04-18T08:41:29.543Z,7.55
2023-04-18T08:44:32.735Z,7.65
2023-04-18T08:47:37.269Z,7.82
2023-04-18T08:50:39.962Z,8.18
2023-04-18T08:53:44.671Z,7.80
2023-04-18T08:56:47.805Z,7.03
2023-04-18T08:59:51.268Z,7.07
2023-04-18T09:02:57.081Z,9.15
2023-04-18T09:06:08.312Z,7.75
2023-04-18T09:09:11.022Z,8.05
2023-04-18T09:12:15.223Z,8.17
2023-04-18T09:15:20.181Z,7.50
2023-04-18T09:18:24.195Z,7.80
2023-04-18T09:21:27.865Z,7.78
2023-04-18T09:24:32.410Z,8.50
2023-04-18T09:27:35.876Z,8.05
2023-04-18T09:30:39.826Z,7.18
2023-04-18T09:33:54.082Z,8.20
2023-04-18T09:37:10.960Z,7.57
2023-04-18T09:40:18.584Z,7.10
2023-04-18T09:43:22.060Z,7.53
2023-04-18T09:46:25.340Z,7.47
2023-04-18T09:49:29.902Z,6.70
2023-04-18T09:52:35.768Z,7.55
2023-04-18T09:55:42.262Z,7.53
2023-04-18T09:58:47.953Z,7.45
2023-04-18T10:01:51.371Z,7.22
2023-04-18T10:04:56.882Z,7.60
2023-04-18T10:07:59.627Z,6.87
2023-04-18T10:11:02.537Z,7.40
2023-04-18T10:14:08.635Z,7.13
2023-04-18T10:17:11.899Z,7.03
2023-04-18T10:20:21.120Z,7.38
2023-04-18T10:23:36.486Z,6.67
2023-04-18T10:26:50.095Z,6.55
2023-04-18T10:30:00.938Z,6.82
2023-04-18T10:33:30.268Z,7.73
2023-04-18T10:36:34.369Z,5.88
2023-04-18T10:39:52.068Z,6.40
2023-04-18T10:43:01.075Z,6.10
2023-04-18T10:46:27.767Z,6.93
2023-04-18T10:49:34.364Z,6.20
2023-04-18T10:52:36.995Z,6.32
2023-04-18T10:55:42.918Z,7.00
2023-04-18T10:58:51.106Z,6.25
2023-04-18T11:01:57.983Z,5.75
2023-04-18T11:05:04.462Z,6.03
2023-04-18T11:08:24.217Z,5.38
2023-04-18T11:11:26.854Z,5.70
2023-04-18T11:14:40.417Z,5.35
2023-04-18T11:17:45.038Z,5.30
2023-04-18T11:20:49.167Z,5.55
2023-04-18T11:23:51.868Z,5.20
2023-04-18T11:26:56.393Z,5.50
2023-04-18T11:29:59.289Z,5.00
2023-04-18T11:33:08.388Z,5.03
2023-04-18T11:36:11.359Z,5.53
2023-04-18T11:39:14.310Z,5.30
2023-04-18T11:42:17.221Z,4.43
2023-04-18T11:45:20.190Z,5.15
2023-04-18T11:48:25.041Z,4.68
2023-04-18T11:51:35.657Z,4.68
2023-04-18T11:54:40.502Z,4.45
2023-04-18T11:57:43.116Z,5.38
2023-04-18T12:00:45.890Z,5.57
2023-04-18T12:04:03.400Z,5.25
2023-04-18T12:07:06.600Z,5.65
2023-04-18T12:10:24.422Z,5.25
2023-04-18T12:13:32.191Z,4.93
2023-04-18T12:16:35.058Z,5.25
2023-04-18T12:19:39.221Z,5.70
2023-04-18T12:22:44.496Z,4.88
2023-04-18T12:26:01.489Z,5.53
2023-04-18T12:29:04.591Z,4.93
2023-04-18T12:32:07.399Z,5.47
2023-04-18T12:35:11.722Z,6.10
2023-04-18T12:38:14.622Z,5.00
2023-04-18T12:41:17.244Z,5.72
2023-04-18T12:44:20.036Z,4.50
2023-04-18T12:47:22.820Z,4.18
2023-04-18T12:50:27.943Z,4.72
2023-04-18T12:53:30.690Z,4.30
2023-04-18T12:56:33.318Z,3.78
2023-04-18T12:59:36.517Z,3.35
2023-04-18T13:02:40.502Z,3.65
2023-04-18T13:05:44.824Z,2.88
2023-04-18T13:08:47.792Z,3.22
2023-04-18T13:11:50.595Z,3.25
2023-04-18T13:14:53.392Z,3.25
2023-04-18T13:17:57.176Z,3.40
2023-04-18T13:21:01.399Z,2.80
2023-04-18T13:24:05.402Z,2.83
2023-04-18T13:27:11.124Z,2.72
2023-04-18T13:30:14.466Z,3.10
2023-04-18T13:33:17.826Z,2.50
2023-04-18T13:36:22.403Z,2.47
2023-04-18T13:39:25.876Z,2.70
2023-04-18T13:42:28.564Z,2.30
2023-04-18T13:45:31.304Z,2.40
2023-04-18T13:48:33.992Z,2.53
2023-04-18T13:51:38.180Z,3.42
2023-04-18T13:54:41.434Z,2.80
2023-04-18T13:57:44.380Z,2.85
2023-04-18T14:00:47.166Z,2.75
2023-04-18T14:03:50.187Z,2.50
2023-04-18T14:06:54.481Z,2.78
2023-04-18T14:09:57.226Z,2.38
2023-04-18T14:13:00.640Z,2.33
2023-04-18T14:16:04.503Z,2.10
2023-04-18T14:19:07.739Z,2.70
2023-04-18T14:22:12.018Z,2.75
2023-04-18T14:25:17.079Z,2.70
2023-04-18T14:28:22.083Z,2.60
2023-04-18T14:31:24.885Z,2.40
2023-04-18T14:34:27.843Z,2.47
2023-04-18T14:37:31.943Z,2.78
2023-04-18T14:40:34.741Z,3.10
2023-04-18T14:43:37.593Z,2.45
2023-04-18T14:46:40.535Z,2.58
2023-04-18T14:49:43.257Z,2.50
2023-04-18T14:52:47.643Z,2.55
2023-04-18T14:55:50.527Z,2.35
2023-04-18T14:58:53.112Z,2.65
2023-04-18T15:01:56.075Z,2.33
2023-04-18T15:04:59.314Z,2.50
2023-04-18T15:08:04.473Z,3.03
2023-04-18T15:11:07.970Z,2.63
2023-04-18T15:14:10.718Z,2.72
2023-04-18T15:17:13.354Z,2.70
2023-04-18T15:20:16.136Z,2.78
2023-04-18T15:23:20.656Z,2.88
2023-04-18T15:26:24.156Z,2.55
2023-04-18T15:29:26.941Z,3.08
2023-04-18T15:32:30.089Z,2.90
2023-04-18T15:35:32.789Z,3.22
2023-04-18T15:38:36.716Z,2.75
2023-04-18T15:41:39.815Z,3.50
2023-04-18T15:44:42.518Z,3.40
2023-04-18T15:47:45.177Z,2.92
2023-04-18T15:50:51.236Z,3.20
2023-04-18T15:53:55.446Z,3.50
2023-04-18T15:56:58.166Z,3.63
2023-04-18T16:00:00.988Z,3.90
2023-04-18T16:03:03.774Z,3.53
2023-04-18T16:06:06.878Z,4.20
2023-04-18T16:09:11.184Z,3.15
2023-04-18T16:12:14.252Z,2.88
2023-04-18T16:15:16.895Z,3.05
2023-04-18T16:18:19.666Z,3.70
2023-04-18T16:21:22.377Z,3.70
2023-04-18T16:24:26.502Z,3.70
2023-04-18T16:27:29.268Z,3.65
2023-04-18T16:30:32.040Z,3.45
2023-04-18T16:33:34.729Z,3.38
2023-04-18T16:36:37.575Z,3.50
2023-04-18T16:39:41.542Z,4.03
2023-04-18T16:42:44.161Z,3.95
2023-04-18T16:45:46.871Z,3.72
2023-04-18T16:48:51.768Z,3.95
2023-04-18T16:51:55.087Z,3.90
2023-04-18T16:54:59.029Z,3.58
2023-04-18T16:58:01.710Z,3.83
2023-04-18T17:01:04.451Z,4.15
2023-04-18T17:04:07.084Z,3.47
2023-04-18T17:07:09.784Z,3.65
2023-04-18T17:10:14.107Z,3.63
2023-04-18T17:13:16.711Z,3.63
2023-04-18T17:16:19.372Z,3.83
2023-04-18T17:19:22.278Z,3.97
2023-04-18T17:22:24.895Z,3.60
2023-04-18T17:25:29.204Z,3.92
2023-04-18T17:28:31.850Z,4.30
2023-04-18T17:31:35.110Z,3.33
2023-04-18T17:34:37.809Z,3.33
2023-04-18T17:37:40.465Z,4.00
2023-04-18T17:40:44.472Z,3.33
2023-04-18T17:43:47.527Z,3.67
2023-04-18T17:46:50.642Z,3.25
2023-04-18T17:49:53.329Z,3.25
2023-04-18T17:52:56.023Z,3.35
2023-04-18T17:56:00.143Z,3.30
2023-04-18T17:59:02.995Z,4.00
2023-04-18T18:02:05.886Z,3.45
2023-04-18T18:05:12.799Z,4.03
2023-04-18T18:08:15.901Z,4.35
2023-04-18T18:11:20.473Z,3.92
2023-04-18T18:14:23.139Z,4.13
2023-04-18T18:17:25.893Z,4.38
2023-04-18T18:20:29.303Z,3.95
2023-04-18T18:23:32.172Z,4.47
2023-04-18T18:26:36.921Z,4.93
2023-04-18T18:29:39.548Z,3.83
2023-04-18T18:32:42.234Z,4.13
2023-04-18T18:35:44.818Z,4.25
2023-04-18T18:38:47.407Z,4.20
2023-04-18T18:41:52.099Z,4.57
2023-04-18T18:44:54.772Z,4.47
2023-04-18T18:47:57.441Z,4.28
2023-04-18T18:51:00.084Z,4.00
2023-04-18T18:54:02.716Z,4.30
2023-04-18T18:57:06.803Z,4.72
2023-04-18T19:00:11.933Z,4.13
2023-04-18T19:03:18.354Z,4.43
2023-04-18T19:06:21.125Z,4.55
2023-04-18T19:09:23.739Z,4.15
2023-04-18T19:12:28.200Z,4.63
2023-04-18T19:15:31.050Z,5.20
2023-04-18T19:18:33.704Z,4.20
2023-04-18T19:21:36.423Z,4.50
2023-04-18T19:24:39.076Z,4.65
2023-04-18T19:27:43.705Z,4.50
2023-04-18T19:30:47.127Z,5.10
2023-04-18T19:33:50.602Z,5.00
2023-04-18T19:36:53.204Z,5.22
2023-04-18T19:39:55.921Z,5.22
2023-04-18T19:42:59.903Z,5.35
2023-04-18T19:46:02.718Z,4.93
2023-04-18T19:49:05.712Z,4.82
2023-04-18T19:52:08.379Z,4.60
2023-04-18T19:55:11.344Z,4.88
2023-04-18T19:58:34.214Z,5.00
2023-04-18T20:01:36.985Z,4.95
2023-04-18T20:04:40.540Z,4.53
2023-04-18T20:07:43.423Z,5.35
2023-04-18T20:10:46.057Z,5.15
2023-04-18T20:13:52.084Z,5.73
2023-04-18T20:16:55.888Z,5.30
2023-04-18T20:19:59.629Z,6.07
2023-04-18T20:23:03.565Z,5.07
2023-04-18T20:26:06.587Z,5.50
2023-04-18T20:29:11.250Z,5.27
2023-04-18T20:32:14.411Z,5.50
2023-04-18T20:35:17.026Z,5.87
2023-04-18T20:38:20.101Z,5.40
2023-04-18T20:41:24.251Z,6.13
2023-04-18T20:44:30.061Z,5.13
2023-04-18T20:47:33.361Z,6.17
2023-04-18T20:50:36.028Z,6.20
2023-04-18T20:53:38.784Z,5.70
2023-04-18T20:56:41.585Z,5.17
2023-04-18T20:59:45.737Z,5.78
2023-04-18T21:02:50.524Z,5.47
2023-04-18T21:05:53.637Z,4.83
2023-04-18T21:08:56.259Z,5.17
2023-04-18T21:11:59.321Z,5.10
2023-04-18T21:15:05.409Z,4.67
2023-04-18T21:18:08.097Z,5.03
2023-04-18T21:21:11.693Z,5.80
2023-04-18T21:24:14.764Z,6.07
2023-04-18T21:27:17.619Z,6.13
2023-04-18T21:30:22.503Z,5.90
2023-04-18T21:33:26.142Z,5.73
2023-04-18T21:36:30.618Z,5.87
2023-04-18T21:39:33.285Z,5.80
2023-04-18T21:42:36.478Z,5.82
2023-04-18T21:45:40.583Z,5.30
2023-04-18T21:48:45.357Z,5.30
2023-04-18T21:51:48.850Z,6.17
2023-04-18T21:54:51.492Z,6.13
2023-04-18T21:57:54.224Z,5.77
2023-04-18T22:00:58.436Z,5.03
2023-04-18T22:04:01.495Z,5.33
2023-04-18T22:07:04.491Z,5.17
2023-04-18T22:10:08.098Z,5.43
2023-04-18T22:13:11.342Z,5.50
2023-04-18T22:16:15.385Z,6.00
2023-04-18T22:19:19.162Z,5.90
2023-04-18T22:22:21.807Z,5.07
2023-04-18T22:25:24.428Z,5.77
2023-04-18T22:28:27.989Z,6.27
2023-04-18T22:31:32.101Z,5.53
2023-04-18T22:34:34.826Z,5.53
2023-04-18T22:37:37.438Z,5.90
2023-04-18T22:40:40.111Z,5.57
2023-04-18T22:43:42.942Z,5.93
2023-04-18T22:46:48.083Z,5.83
2023-04-18T22:49:51.699Z,6.10
2023-04-18T22:52:54.426Z,5.93
2023-04-18T22:55:57.027Z,5.70
2023-04-18T22:58:59.598Z,5.57
2023-04-18T23:02:03.616Z,6.03
2023-04-18T23:05:08.078Z,6.93
2023-04-18T23:08:11.892Z,6.60
2023-04-18T23:11:14.616Z,6.60
2023-04-18T23:14:17.309Z,6.60
2023-04-18T23:17:22.050Z,5.97
2023-04-18T23:20:24.899Z,6.60
2023-04-18T23:23:27.587Z,6.57
2023-04-18T23:26:30.224Z,6.50
2023-04-18T23:29:36.848Z,7.03
2023-04-18T23:32:40.936Z,6.60
2023-04-18T23:35:43.705Z,5.83
2023-04-18T23:38:46.883Z,6.67
2023-04-18T23:41:50.166Z,6.87
2023-04-18T23:44:52.831Z,6.20
2023-04-18T23:47:56.819Z,6.83
2023-04-18T23:50:59.516Z,6.20
2023-04-18T23:54:02.145Z,7.03
2023-04-18T23:57:04.859Z,6.67
